sensor_id;sensor_type;location;lat;lon;timestamp;pressure;altitude;pressure_sealevel;temperature;humidity
39157;BME280;24889;42.424;25.604;2022-10-17T00:01:55;99537.03;;;10.46;89.16
39157;BME280;24889;42.424;25.604;2022-10-17T00:04:21;99521.53;;;10.42;86.63
39157;BME280;24889;42.424;25.604;2022-10-17T00:06:46;99534.38;;;10.46;88.06
39157;BME280;24889;42.424;25.604;2022-10-17T00:09:12;99541.09;;;10.42;91.27
39157;BME280;24889;42.424;25.604;2022-10-17T00:11:38;99540.59;;;10.39;90.91
39157;BME280;24889;42.424;25.604;2022-10-17T00:14:03;99539.44;;;10.33;87.98
39157;BME280;24889;42.424;25.604;2022-10-17T00:16:32;99542.47;;;10.22;88.40
39157;BME280;24889;42.424;25.604;2022-10-17T00:18:58;99543.56;;;10.05;91.09
39157;BME280;24889;42.424;25.604;2022-10-17T00:21:24;99544.28;;;9.90;91.69
39157;BME280;24889;42.424;25.604;2022-10-17T00:23:50;99548.59;;;9.99;88.31
39157;BME280;24889;42.424;25.604;2022-10-17T00:26:16;99544.75;;;10.02;91.59
39157;BME280;24889;42.424;25.604;2022-10-17T00:28:45;99546.81;;;9.84;90.78
39157;BME280;24889;42.424;25.604;2022-10-17T00:31:10;99541.31;;;9.85;92.68
39157;BME280;24889;42.424;25.604;2022-10-17T00:33:36;99536.59;;;9.87;91.37
39157;BME280;24889;42.424;25.604;2022-10-17T00:36:07;99539.13;;;9.81;91.45
39157;BME280;24889;42.424;25.604;2022-10-17T00:38:34;99530.13;;;9.82;91.59
39157;BME280;24889;42.424;25.604;2022-10-17T00:40:59;99536.06;;;9.92;91.09
39157;BME280;24889;42.424;25.604;2022-10-17T00:43:25;99542.75;;;10.04;89.95
39157;BME280;24889;42.424;25.604;2022-10-17T00:45:51;99538.78;;;9.84;91.84
39157;BME280;24889;42.424;25.604;2022-10-17T00:48:17;99532.28;;;9.78;93.10
39157;BME280;24889;42.424;25.604;2022-10-17T00:50:45;99539.63;;;9.76;92.16
39157;BME280;24889;42.424;25.604;2022-10-17T00:53:12;99546.97;;;9.90;93.09
39157;BME280;24889;42.424;25.604;2022-10-17T00:55:51;99536.06;;;9.92;93.31
39157;BME280;24889;42.424;25.604;2022-10-17T00:58:18;99541.56;;;9.98;92.57
39157;BME280;24889;42.424;25.604;2022-10-17T01:00:46;99542.25;;;10.01;93.31
39157;BME280;24889;42.424;25.604;2022-10-17T01:03:12;99544.22;;;10.07;92.62
39157;BME280;24889;42.424;25.604;2022-10-17T01:05:39;99543.22;;;9.99;91.26
39157;BME280;24889;42.424;25.604;2022-10-17T01:08:06;99542.22;;;10.09;92.88
39157;BME280;24889;42.424;25.604;2022-10-17T01:10:41;99530.78;;;10.15;89.41
39157;BME280;24889;42.424;25.604;2022-10-17T01:13:43;99537.63;;;10.26;89.74
39157;BME280;24889;42.424;25.604;2022-10-17T01:18:54;99526.63;;;10.52;91.17
39157;BME280;24889;42.424;25.604;2022-10-17T01:21:30;99533.63;;;10.61;87.12
39157;BME280;24889;42.424;25.604;2022-10-17T01:24:11;99532.25;;;10.65;83.40
39157;BME280;24889;42.424;25.604;2022-10-17T01:27:11;99531.38;;;10.64;81.89
39157;BME280;24889;42.424;25.604;2022-10-17T01:29:59;99526.09;;;10.79;85.48
39157;BME280;24889;42.424;25.604;2022-10-17T01:32:41;99525.75;;;10.82;86.02
39157;BME280;24889;42.424;25.604;2022-10-17T01:35:38;99534.19;;;10.94;83.11
39157;BME280;24889;42.424;25.604;2022-10-17T01:38:09;99529.31;;;10.98;85.69
39157;BME280;24889;42.424;25.604;2022-10-17T01:44:06;99539.47;;;10.87;81.74
39157;BME280;24889;42.424;25.604;2022-10-17T01:46:36;99540.81;;;10.83;81.71
39157;BME280;24889;42.424;25.604;2022-10-17T01:49:04;99537.78;;;10.86;80.54
39157;BME280;24889;42.424;25.604;2022-10-17T01:51:37;99547.91;;;10.76;80.47
39157;BME280;24889;42.424;25.604;2022-10-17T01:54:10;99550.25;;;10.71;81.80
39157;BME280;24889;42.424;25.604;2022-10-17T01:56:39;99549.22;;;10.80;80.35
39157;BME280;24889;42.424;25.604;2022-10-17T01:59:11;99549.31;;;10.87;81.10
39157;BME280;24889;42.424;25.604;2022-10-17T02:01:40;99548.81;;;10.91;82.82
39157;BME280;24889;42.424;25.604;2022-10-17T02:04:07;99558.56;;;10.84;83.60
39157;BME280;24889;42.424;25.604;2022-10-17T02:06:37;99552.53;;;10.82;83.55
39157;BME280;24889;42.424;25.604;2022-10-17T02:09:19;99557.25;;;10.80;82.14
39157;BME280;24889;42.424;25.604;2022-10-17T02:11:54;99569.44;;;10.83;83.36
39157;BME280;24889;42.424;25.604;2022-10-17T02:23:10;99572.69;;;10.70;84.85
39157;BME280;24889;42.424;25.604;2022-10-17T02:26:09;99571.19;;;10.67;84.11
39157;BME280;24889;42.424;25.604;2022-10-17T02:28:46;99555.97;;;10.37;86.76
39157;BME280;24889;42.424;25.604;2022-10-17T02:31:17;99558.88;;;10.27;87.27
39157;BME280;24889;42.424;25.604;2022-10-17T02:33:53;99563.13;;;10.05;87.87
39157;BME280;24889;42.424;25.604;2022-10-17T02:36:24;99560.25;;;10.07;86.08
39157;BME280;24889;42.424;25.604;2022-10-17T02:38:52;99532.69;;;10.06;85.40
39157;BME280;24889;42.424;25.604;2022-10-17T02:41:21;99560.22;;;10.23;83.05
39157;BME280;24889;42.424;25.604;2022-10-17T02:43:48;99568.75;;;10.27;83.63
39157;BME280;24889;42.424;25.604;2022-10-17T02:46:17;99563.41;;;10.27;82.64
39157;BME280;24889;42.424;25.604;2022-10-17T02:48:52;99570.47;;;10.03;84.74
39157;BME280;24889;42.424;25.604;2022-10-17T02:56:32;99570.66;;;10.02;84.47
39157;BME280;24889;42.424;25.604;2022-10-17T02:59:01;99583.38;;;9.91;83.78
39157;BME280;24889;42.424;25.604;2022-10-17T03:01:28;99592.25;;;9.84;86.66
39157;BME280;24889;42.424;25.604;2022-10-17T03:04:12;99595.09;;;9.90;85.91
39157;BME280;24889;42.424;25.604;2022-10-17T03:06:39;99599.91;;;9.95;86.10
39157;BME280;24889;42.424;25.604;2022-10-17T03:09:05;99595.06;;;9.98;85.08
39157;BME280;24889;42.424;25.604;2022-10-17T03:11:31;99605.09;;;10.05;85.66
39157;BME280;24889;42.424;25.604;2022-10-17T03:13:56;99602.22;;;10.06;92.70
39157;BME280;24889;42.424;25.604;2022-10-17T03:16:22;99602.44;;;9.88;87.67
39157;BME280;24889;42.424;25.604;2022-10-17T03:18:47;99601.78;;;9.86;89.43
39157;BME280;24889;42.424;25.604;2022-10-17T03:21:13;99593.78;;;9.78;88.40
39157;BME280;24889;42.424;25.604;2022-10-17T03:23:38;99585.44;;;9.73;89.35
39157;BME280;24889;42.424;25.604;2022-10-17T03:26:04;99587.78;;;9.68;86.18
39157;BME280;24889;42.424;25.604;2022-10-17T03:28:30;99591.13;;;9.62;85.76
39157;BME280;24889;42.424;25.604;2022-10-17T03:30:56;99594.66;;;9.62;86.21
39157;BME280;24889;42.424;25.604;2022-10-17T03:33:21;99599.50;;;9.59;87.45
39157;BME280;24889;42.424;25.604;2022-10-17T03:35:46;99593.00;;;9.45;86.59
39157;BME280;24889;42.424;25.604;2022-10-17T03:38:12;99593.81;;;9.45;86.51
39157;BME280;24889;42.424;25.604;2022-10-17T03:40:37;99598.50;;;9.52;85.40
39157;BME280;24889;42.424;25.604;2022-10-17T03:43:03;99599.66;;;9.49;86.35
39157;BME280;24889;42.424;25.604;2022-10-17T03:45:28;99599.50;;;9.50;85.65
39157;BME280;24889;42.424;25.604;2022-10-17T03:47:54;99608.69;;;9.48;86.57
39157;BME280;24889;42.424;25.604;2022-10-17T03:50:19;99605.50;;;9.53;85.17
39157;BME280;24889;42.424;25.604;2022-10-17T03:52:46;99605.50;;;9.61;88.11
39157;BME280;24889;42.424;25.604;2022-10-17T03:55:13;99611.16;;;9.66;87.41
39157;BME280;24889;42.424;25.604;2022-10-17T03:57:38;99618.03;;;9.60;85.31
39157;BME280;24889;42.424;25.604;2022-10-17T04:00:04;99613.34;;;9.79;93.52
39157;BME280;24889;42.424;25.604;2022-10-17T04:02:30;99626.50;;;10.05;89.74
39157;BME280;24889;42.424;25.604;2022-10-17T04:04:55;99632.44;;;10.23;84.12
39157;BME280;24889;42.424;25.604;2022-10-17T04:07:21;99630.38;;;10.41;82.12
39157;BME280;24889;42.424;25.604;2022-10-17T04:09:46;99635.66;;;10.66;77.14
39157;BME280;24889;42.424;25.604;2022-10-17T04:12:12;99636.22;;;10.53;81.41
39157;BME280;24889;42.424;25.604;2022-10-17T04:14:37;99635.50;;;10.12;79.34
39157;BME280;24889;42.424;25.604;2022-10-17T04:17:03;99631.34;;;10.01;78.83
39157;BME280;24889;42.424;25.604;2022-10-17T04:19:29;99637.19;;;10.05;78.24
39157;BME280;24889;42.424;25.604;2022-10-17T04:21:54;99638.16;;;10.04;79.90
39157;BME280;24889;42.424;25.604;2022-10-17T04:24:20;99646.84;;;10.14;79.26
39157;BME280;24889;42.424;25.604;2022-10-17T04:26:48;99652.19;;;10.14;80.21
39157;BME280;24889;42.424;25.604;2022-10-17T04:29:14;99637.34;;;10.03;81.43
39157;BME280;24889;42.424;25.604;2022-10-17T04:31:39;99641.03;;;10.02;85.35
39157;BME280;24889;42.424;25.604;2022-10-17T04:34:05;99643.06;;;10.00;81.32
39157;BME280;24889;42.424;25.604;2022-10-17T04:36:30;99642.34;;;10.06;85.44
39157;BME280;24889;42.424;25.604;2022-10-17T04:38:55;99647.69;;;10.06;80.04
39157;BME280;24889;42.424;25.604;2022-10-17T04:41:21;99644.66;;;10.17;82.49
39157;BME280;24889;42.424;25.604;2022-10-17T04:43:46;99644.00;;;10.32;74.98
39157;BME280;24889;42.424;25.604;2022-10-17T04:46:13;99650.53;;;10.60;72.50
39157;BME280;24889;42.424;25.604;2022-10-17T04:48:40;99653.25;;;10.91;69.38
39157;BME280;24889;42.424;25.604;2022-10-17T04:51:15;99662.38;;;11.28;65.52
39157;BME280;24889;42.424;25.604;2022-10-17T04:53:43;99657.81;;;11.60;62.59
39157;BME280;24889;42.424;25.604;2022-10-17T04:58:35;99664.97;;;12.20;61.02
39157;BME280;24889;42.424;25.604;2022-10-17T05:01:04;99658.94;;;12.48;58.79
39157;BME280;24889;42.424;25.604;2022-10-17T05:03:30;99661.66;;;12.84;55.76
39157;BME280;24889;42.424;25.604;2022-10-17T05:05:56;99659.34;;;12.96;59.52
39157;BME280;24889;42.424;25.604;2022-10-17T05:08:21;99660.47;;;13.44;53.70
39157;BME280;24889;42.424;25.604;2022-10-17T05:10:47;99673.38;;;13.98;51.57
39157;BME280;24889;42.424;25.604;2022-10-17T05:13:12;99670.75;;;14.40;49.26
39157;BME280;24889;42.424;25.604;2022-10-17T05:15:38;99673.44;;;14.74;47.20
39157;BME280;24889;42.424;25.604;2022-10-17T05:18:05;99667.88;;;14.82;49.87
39157;BME280;24889;42.424;25.604;2022-10-17T05:20:31;99686.03;;;15.15;47.80
39157;BME280;24889;42.424;25.604;2022-10-17T05:23:00;99687.75;;;15.43;46.58
39157;BME280;24889;42.424;25.604;2022-10-17T05:25:26;99682.78;;;15.53;46.44
39157;BME280;24889;42.424;25.604;2022-10-17T05:27:52;99672.88;;;15.87;45.41
39157;BME280;24889;42.424;25.604;2022-10-17T05:30:18;99677.84;;;16.23;45.07
39157;BME280;24889;42.424;25.604;2022-10-17T05:32:43;99684.06;;;16.37;44.79
39157;BME280;24889;42.424;25.604;2022-10-17T05:35:09;99692.34;;;16.48;43.81
39157;BME280;24889;42.424;25.604;2022-10-17T05:37:34;99690.66;;;16.61;43.94
39157;BME280;24889;42.424;25.604;2022-10-17T05:40:00;99687.00;;;16.22;45.44
39157;BME280;24889;42.424;25.604;2022-10-17T05:42:25;99689.44;;;15.50;47.47
39157;BME280;24889;42.424;25.604;2022-10-17T05:44:50;99689.34;;;15.04;49.48
39157;BME280;24889;42.424;25.604;2022-10-17T05:47:16;99688.28;;;14.57;52.36
39157;BME280;24889;42.424;25.604;2022-10-17T05:49:42;99705.31;;;14.64;54.19
39157;BME280;24889;42.424;25.604;2022-10-17T05:52:07;99687.41;;;14.50;55.65
39157;BME280;24889;42.424;25.604;2022-10-17T05:54:33;99697.34;;;14.91;55.86
39157;BME280;24889;42.424;25.604;2022-10-17T05:56:58;99714.00;;;15.69;52.85
39157;BME280;24889;42.424;25.604;2022-10-17T05:59:24;99712.63;;;16.84;48.25
39157;BME280;24889;42.424;25.604;2022-10-17T06:01:50;99713.34;;;17.18;48.26
39157;BME280;24889;42.424;25.604;2022-10-17T06:04:16;99706.03;;;16.60;48.48
39157;BME280;24889;42.424;25.604;2022-10-17T06:06:41;99711.19;;;17.26;47.41
39157;BME280;24889;42.424;25.604;2022-10-17T06:09:07;99716.47;;;17.53;45.79
39157;BME280;24889;42.424;25.604;2022-10-17T06:11:33;99715.97;;;17.69;46.15
39157;BME280;24889;42.424;25.604;2022-10-17T06:13:59;99719.59;;;17.88;45.41
39157;BME280;24889;42.424;25.604;2022-10-17T06:16:24;99720.13;;;18.65;43.79
39157;BME280;24889;42.424;25.604;2022-10-17T06:18:50;99719.72;;;18.87;42.80
39157;BME280;24889;42.424;25.604;2022-10-17T06:21:23;99723.50;;;18.17;45.33
39157;BME280;24889;42.424;25.604;2022-10-17T06:23:49;99729.22;;;18.34;45.17
39157;BME280;24889;42.424;25.604;2022-10-17T06:26:15;99721.69;;;18.98;43.15
39157;BME280;24889;42.424;25.604;2022-10-17T06:28:40;99728.56;;;19.31;43.03
39157;BME280;24889;42.424;25.604;2022-10-17T06:31:11;99723.69;;;19.81;42.28
39157;BME280;24889;42.424;25.604;2022-10-17T06:33:36;99726.22;;;20.18;43.18
39157;BME280;24889;42.424;25.604;2022-10-17T06:36:03;99719.59;;;20.96;41.20
39157;BME280;24889;42.424;25.604;2022-10-17T06:38:29;99719.69;;;21.42;40.45
39157;BME280;24889;42.424;25.604;2022-10-17T06:41:05;99721.88;;;21.56;38.64
39157;BME280;24889;42.424;25.604;2022-10-17T06:43:36;99730.28;;;22.34;36.35
39157;BME280;24889;42.424;25.604;2022-10-17T06:46:02;99720.03;;;22.80;35.45
39157;BME280;24889;42.424;25.604;2022-10-17T06:48:27;99720.38;;;23.05;33.62
39157;BME280;24889;42.424;25.604;2022-10-17T06:50:53;99729.41;;;23.28;32.21
39157;BME280;24889;42.424;25.604;2022-10-17T06:53:22;99730.91;;;23.41;33.05
39157;BME280;24889;42.424;25.604;2022-10-17T06:55:52;99726.16;;;23.31;32.20
39157;BME280;24889;42.424;25.604;2022-10-17T06:58:19;99727.16;;;24.38;31.32
39157;BME280;24889;42.424;25.604;2022-10-17T07:00:44;99727.09;;;25.18;29.85
39157;BME280;24889;42.424;25.604;2022-10-17T07:03:10;99723.09;;;24.88;29.84
39157;BME280;24889;42.424;25.604;2022-10-17T07:05:35;99733.19;;;25.45;29.46
39157;BME280;24889;42.424;25.604;2022-10-17T07:08:03;99722.03;;;25.78;28.49
39157;BME280;24889;42.424;25.604;2022-10-17T07:10:29;99724.41;;;25.33;28.82
39157;BME280;24889;42.424;25.604;2022-10-17T07:12:54;99736.75;;;24.78;29.29
39157;BME280;24889;42.424;25.604;2022-10-17T07:15:19;99748.28;;;24.85;28.10
39157;BME280;24889;42.424;25.604;2022-10-17T07:17:47;99743.28;;;24.35;29.43
39157;BME280;24889;42.424;25.604;2022-10-17T07:20:14;99741.84;;;24.59;28.73
39157;BME280;24889;42.424;25.604;2022-10-17T07:22:40;99746.78;;;23.22;29.79
39157;BME280;24889;42.424;25.604;2022-10-17T07:25:05;99736.59;;;23.34;30.43
39157;BME280;24889;42.424;25.604;2022-10-17T07:27:31;99720.72;;;23.85;29.81
39157;BME280;24889;42.424;25.604;2022-10-17T07:29:57;99761.09;;;23.56;31.18
39157;BME280;24889;42.424;25.604;2022-10-17T07:32:22;99752.47;;;23.64;30.70
39157;BME280;24889;42.424;25.604;2022-10-17T07:34:48;99754.22;;;24.35;29.91
39157;BME280;24889;42.424;25.604;2022-10-17T07:37:13;99748.47;;;23.99;30.31
39157;BME280;24889;42.424;25.604;2022-10-17T07:39:39;99741.63;;;23.69;31.44
39157;BME280;24889;42.424;25.604;2022-10-17T07:42:04;99754.00;;;24.84;30.17
39157;BME280;24889;42.424;25.604;2022-10-17T07:44:32;99746.97;;;25.66;27.81
39157;BME280;24889;42.424;25.604;2022-10-17T07:46:57;99759.28;;;24.95;27.71
39157;BME280;24889;42.424;25.604;2022-10-17T07:49:22;99752.31;;;25.25;28.08
39157;BME280;24889;42.424;25.604;2022-10-17T07:51:48;99751.84;;;25.48;28.44
39157;BME280;24889;42.424;25.604;2022-10-17T07:54:13;99754.09;;;25.67;28.13
39157;BME280;24889;42.424;25.604;2022-10-17T07:56:39;99744.84;;;26.50;26.74
39157;BME280;24889;42.424;25.604;2022-10-17T07:59:04;99746.13;;;26.88;26.38
39157;BME280;24889;42.424;25.604;2022-10-17T08:01:30;99749.19;;;26.66;26.39
39157;BME280;24889;42.424;25.604;2022-10-17T08:03:55;99742.72;;;27.22;25.52
39157;BME280;24889;42.424;25.604;2022-10-17T08:06:21;99743.63;;;25.43;26.60
39157;BME280;24889;42.424;25.604;2022-10-17T08:08:46;99740.00;;;25.33;27.69
39157;BME280;24889;42.424;25.604;2022-10-17T08:11:12;99751.22;;;24.36;28.55
39157;BME280;24889;42.424;25.604;2022-10-17T08:13:38;99748.41;;;23.94;30.04
39157;BME280;24889;42.424;25.604;2022-10-17T08:16:07;99731.47;;;25.19;29.70
39157;BME280;24889;42.424;25.604;2022-10-17T08:18:35;99740.97;;;25.01;28.51
39157;BME280;24889;42.424;25.604;2022-10-17T08:21:02;99736.47;;;25.32;28.77
39157;BME280;24889;42.424;25.604;2022-10-17T08:23:30;99719.06;;;23.08;32.68
39157;BME280;24889;42.424;25.604;2022-10-17T08:26:02;99736.72;;;22.83;35.04
39157;BME280;24889;42.424;25.604;2022-10-17T08:28:28;99736.41;;;22.97;34.87
39157;BME280;24889;42.424;25.604;2022-10-17T08:31:12;99730.84;;;23.63;33.54
39157;BME280;24889;42.424;25.604;2022-10-17T08:33:38;99736.88;;;22.38;35.87
39157;BME280;24889;42.424;25.604;2022-10-17T08:36:05;99738.81;;;22.38;37.00
39157;BME280;24889;42.424;25.604;2022-10-17T08:38:32;99738.50;;;23.12;34.71
39157;BME280;24889;42.424;25.604;2022-10-17T08:41:02;99723.19;;;24.19;32.31
39157;BME280;24889;42.424;25.604;2022-10-17T08:46:16;99736.63;;;23.93;33.68
39157;BME280;24889;42.424;25.604;2022-10-17T08:48:45;99744.47;;;24.12;32.65
39157;BME280;24889;42.424;25.604;2022-10-17T08:51:18;99747.25;;;23.63;34.27
39157;BME280;24889;42.424;25.604;2022-10-17T08:53:59;99737.44;;;25.06;32.81
39157;BME280;24889;42.424;25.604;2022-10-17T08:56:34;99720.06;;;22.24;36.39
39157;BME280;24889;42.424;25.604;2022-10-17T08:59:06;99738.19;;;23.30;36.26
39157;BME280;24889;42.424;25.604;2022-10-17T09:01:44;99732.69;;;24.86;33.93
39157;BME280;24889;42.424;25.604;2022-10-17T09:13:32;99737.69;;;26.38;30.27
39157;BME280;24889;42.424;25.604;2022-10-17T09:18:40;99725.66;;;26.04;31.18
39157;BME280;24889;42.424;25.604;2022-10-17T09:21:28;99724.00;;;26.03;30.61
39157;BME280;24889;42.424;25.604;2022-10-17T09:24:00;99716.28;;;26.51;30.53
39157;BME280;24889;42.424;25.604;2022-10-17T09:26:27;99719.06;;;26.46;30.52
39157;BME280;24889;42.424;25.604;2022-10-17T09:28:56;99713.00;;;25.87;30.74
39157;BME280;24889;42.424;25.604;2022-10-17T09:31:25;99732.72;;;22.69;35.09
39157;BME280;24889;42.424;25.604;2022-10-17T09:33:54;99727.56;;;22.34;37.10
39157;BME280;24889;42.424;25.604;2022-10-17T09:39:04;99720.97;;;23.57;35.55
39157;BME280;24889;42.424;25.604;2022-10-17T09:41:39;99718.72;;;24.87;34.63
39157;BME280;24889;42.424;25.604;2022-10-17T09:46:39;99725.88;;;22.67;35.84
39157;BME280;24889;42.424;25.604;2022-10-17T09:49:15;99715.91;;;22.05;37.85
39157;BME280;24889;42.424;25.604;2022-10-17T09:51:42;99710.63;;;22.71;37.30
39157;BME280;24889;42.424;25.604;2022-10-17T09:54:35;99715.81;;;24.19;34.90
39157;BME280;24889;42.424;25.604;2022-10-17T09:57:06;99710.38;;;24.62;32.72
39157;BME280;24889;42.424;25.604;2022-10-17T09:59:36;99703.94;;;24.88;31.98
39157;BME280;24889;42.424;25.604;2022-10-17T10:04:33;99699.69;;;24.60;32.26
39157;BME280;24889;42.424;25.604;2022-10-17T10:07:01;99695.06;;;21.82;36.88
39157;BME280;24889;42.424;25.604;2022-10-17T10:09:29;99707.38;;;21.68;38.25
39157;BME280;24889;42.424;25.604;2022-10-17T10:11:57;99703.19;;;21.94;37.87
39157;BME280;24889;42.424;25.604;2022-10-17T10:14:30;99701.69;;;22.20;36.20
39157;BME280;24889;42.424;25.604;2022-10-17T10:17:01;99699.38;;;22.11;38.43
39157;BME280;24889;42.424;25.604;2022-10-17T10:19:31;99704.16;;;21.71;37.67
39157;BME280;24889;42.424;25.604;2022-10-17T10:21:59;99696.63;;;22.11;38.33
39157;BME280;24889;42.424;25.604;2022-10-17T10:24:25;99693.56;;;22.58;36.94
39157;BME280;24889;42.424;25.604;2022-10-17T10:26:52;99698.38;;;22.51;34.98
39157;BME280;24889;42.424;25.604;2022-10-17T10:34:56;99697.06;;;22.37;36.09
39157;BME280;24889;42.424;25.604;2022-10-17T10:37:26;99683.41;;;22.76;35.96
39157;BME280;24889;42.424;25.604;2022-10-17T10:39:57;99673.28;;;23.42;33.69
39157;BME280;24889;42.424;25.604;2022-10-17T10:44:51;99685.47;;;22.86;35.90
39157;BME280;24889;42.424;25.604;2022-10-17T10:47:21;99676.34;;;23.19;34.39
39157;BME280;24889;42.424;25.604;2022-10-17T10:49:50;99676.97;;;23.04;34.27
39157;BME280;24889;42.424;25.604;2022-10-17T10:52:29;99678.78;;;22.76;34.38
39157;BME280;24889;42.424;25.604;2022-10-17T10:55:13;99681.38;;;23.32;35.87
39157;BME280;24889;42.424;25.604;2022-10-17T10:57:41;99669.13;;;21.62;36.32
39157;BME280;24889;42.424;25.604;2022-10-17T11:00:12;99682.09;;;21.89;37.72
39157;BME280;24889;42.424;25.604;2022-10-17T11:03:00;99679.78;;;22.48;35.46
39157;BME280;24889;42.424;25.604;2022-10-17T11:08:04;99671.03;;;20.29;40.01
39157;BME280;24889;42.424;25.604;2022-10-17T11:13:57;99660.03;;;21.28;37.93
39157;BME280;24889;42.424;25.604;2022-10-17T11:16:39;99664.19;;;21.93;38.02
39157;BME280;24889;42.424;25.604;2022-10-17T11:19:32;99657.41;;;22.29;36.10
39157;BME280;24889;42.424;25.604;2022-10-17T11:22:14;99665.16;;;21.25;36.74
39157;BME280;24889;42.424;25.604;2022-10-17T11:24:53;99650.22;;;21.10;37.83
39157;BME280;24889;42.424;25.604;2022-10-17T11:27:22;99650.50;;;21.26;37.79
39157;BME280;24889;42.424;25.604;2022-10-17T11:29:48;99648.22;;;21.34;38.01
39157;BME280;24889;42.424;25.604;2022-10-17T11:32:21;99619.28;;;20.88;37.79
39157;BME280;24889;42.424;25.604;2022-10-17T11:34:53;99638.47;;;21.10;38.28
39157;BME280;24889;42.424;25.604;2022-10-17T11:37:33;99634.19;;;20.85;37.92
39157;BME280;24889;42.424;25.604;2022-10-17T11:40:13;99641.69;;;20.67;38.54
39157;BME280;24889;42.424;25.604;2022-10-17T11:42:51;99638.72;;;20.80;39.38
39157;BME280;24889;42.424;25.604;2022-10-17T11:45:21;99613.50;;;21.13;38.56
39157;BME280;24889;42.424;25.604;2022-10-17T11:48:21;99637.25;;;20.89;38.46
39157;BME280;24889;42.424;25.604;2022-10-17T11:50:56;99634.94;;;21.38;37.74
39157;BME280;24889;42.424;25.604;2022-10-17T11:53:27;99639.25;;;21.51;36.79
39157;BME280;24889;42.424;25.604;2022-10-17T11:55:57;99632.06;;;21.16;37.68
39157;BME280;24889;42.424;25.604;2022-10-17T12:01:31;99631.81;;;21.46;37.74
39157;BME280;24889;42.424;25.604;2022-10-17T12:04:29;99627.88;;;20.97;39.22
39157;BME280;24889;42.424;25.604;2022-10-17T12:07:24;99639.81;;;21.24;39.28
39157;BME280;24889;42.424;25.604;2022-10-17T12:10:43;99629.75;;;21.25;39.14
39157;BME280;24889;42.424;25.604;2022-10-17T12:12:40;99628.03;;;21.19;39.06
39157;BME280;24889;42.424;25.604;2022-10-17T12:17:39;99640.44;;;19.87;41.40
39157;BME280;24889;42.424;25.604;2022-10-17T12:25:29;99622.56;;;20.38;40.44
39157;BME280;24889;42.424;25.604;2022-10-17T12:28:10;99638.69;;;20.04;41.29
39157;BME280;24889;42.424;25.604;2022-10-17T12:46:51;99628.72;;;20.97;40.45
39157;BME280;24889;42.424;25.604;2022-10-17T12:54:56;99633.44;;;20.61;39.83
39157;BME280;24889;42.424;25.604;2022-10-17T12:59:55;99626.34;;;20.60;40.34
39157;BME280;24889;42.424;25.604;2022-10-17T13:02:23;99636.06;;;20.97;41.16
39157;BME280;24889;42.424;25.604;2022-10-17T13:05:03;99638.28;;;20.59;40.90
39157;BME280;24889;42.424;25.604;2022-10-17T13:07:32;99604.22;;;20.69;40.40
39157;BME280;24889;42.424;25.604;2022-10-17T13:09:58;99624.16;;;21.14;39.72
39157;BME280;24889;42.424;25.604;2022-10-17T13:12:31;99616.56;;;21.17;38.56
39157;BME280;24889;42.424;25.604;2022-10-17T13:14:58;99631.06;;;21.34;39.69
39157;BME280;24889;42.424;25.604;2022-10-17T13:17:25;99631.06;;;21.34;38.94
39157;BME280;24889;42.424;25.604;2022-10-17T13:19:52;99630.06;;;21.40;39.15
39157;BME280;24889;42.424;25.604;2022-10-17T13:22:29;99631.91;;;21.23;39.34
39157;BME280;24889;42.424;25.604;2022-10-17T13:25:16;99634.59;;;21.34;39.18
39157;BME280;24889;42.424;25.604;2022-10-17T13:27:42;99626.38;;;21.46;38.81
39157;BME280;24889;42.424;25.604;2022-10-17T13:30:24;99624.25;;;21.48;38.80
39157;BME280;24889;42.424;25.604;2022-10-17T13:32:50;99622.09;;;21.50;38.65
39157;BME280;24889;42.424;25.604;2022-10-17T13:35:26;99630.25;;;21.50;38.53
39157;BME280;24889;42.424;25.604;2022-10-17T13:37:51;99629.56;;;21.43;38.36
39157;BME280;24889;42.424;25.604;2022-10-17T13:40:21;99620.31;;;20.99;39.74
39157;BME280;24889;42.424;25.604;2022-10-17T13:42:47;99633.47;;;20.90;40.52
39157;BME280;24889;42.424;25.604;2022-10-17T13:45:18;99622.44;;;20.97;40.27
39157;BME280;24889;42.424;25.604;2022-10-17T13:47:44;99622.88;;;21.05;40.46
39157;BME280;24889;42.424;25.604;2022-10-17T13:53:31;99620.31;;;20.99;39.78
39157;BME280;24889;42.424;25.604;2022-10-17T13:58:42;99624.28;;;21.08;40.14
39157;BME280;24889;42.424;25.604;2022-10-17T14:01:09;99620.31;;;20.99;40.01
39157;BME280;24889;42.424;25.604;2022-10-17T14:03:36;99614.41;;;20.90;40.28
39157;BME280;24889;42.424;25.604;2022-10-17T14:06:17;99616.13;;;21.08;40.29
39157;BME280;24889;42.424;25.604;2022-10-17T14:08:59;99613.75;;;21.11;40.40
39157;BME280;24889;42.424;25.604;2022-10-17T14:11:37;99615.31;;;21.24;40.01
39157;BME280;24889;42.424;25.604;2022-10-17T14:14:06;99618.78;;;21.20;40.32
39157;BME280;24889;42.424;25.604;2022-10-17T14:16:41;99624.44;;;21.30;39.94
39157;BME280;24889;42.424;25.604;2022-10-17T14:19:31;99618.19;;;21.46;39.76
39157;BME280;24889;42.424;25.604;2022-10-17T14:24:41;99631.19;;;20.58;41.20
39157;BME280;24889;42.424;25.604;2022-10-17T14:27:33;99635.00;;;20.57;42.09
39157;BME280;24889;42.424;25.604;2022-10-17T14:30:02;99635.06;;;20.74;41.88
39157;BME280;24889;42.424;25.604;2022-10-17T14:32:33;99633.56;;;20.43;42.26
39157;BME280;24889;42.424;25.604;2022-10-17T14:35:01;99632.75;;;20.31;42.63
39157;BME280;24889;42.424;25.604;2022-10-17T14:40:02;99634.53;;;20.13;43.50
39157;BME280;24889;42.424;25.604;2022-10-17T14:42:28;99624.84;;;20.17;43.09
39157;BME280;24889;42.424;25.604;2022-10-17T14:44:57;99628.16;;;20.31;43.58
39157;BME280;24889;42.424;25.604;2022-10-17T14:47:27;99635.81;;;20.23;44.74
39157;BME280;24889;42.424;25.604;2022-10-17T14:52:38;99628.28;;;20.01;46.60